ADDS METAR Data INFO
IDs: Format: Raw Decoded Include TAF

Data at: 1008 UTC 12 Dec 2017

KFLP 120956Z AUTO 30011G17KT 10SM SCT036 04/M03 A3021 RMK AO2 SLP230 T00441033
KFLP 120856Z AUTO 33013KT 10SM OVC040 06/M02 A3018 RMK AO2 SLP217 T00611017 53023
KFLP 120756Z AUTO 33013G18KT 10SM OVC050 08/M02 A3016 RMK AO2 PK WND 35026/0658 SLP208 T00781017
KFLP 120556Z AUTO 32011G19KT 10SM CLR 09/M01 A3011 RMK AO2 SLP194 T00891011 10144 20089 402281022 51014
KFLP 120456Z AUTO 33013G22KT 10SM CLR 09/M02 A3010 RMK AO2 SLP189 T00941022
KFLP 120356Z AUTO 32009KT 10SM CLR 11/M03 A3008 RMK AO2 SLP187 T01061028
KFLP 120256Z AUTO 32011G19KT 10SM CLR 12/M04 A3007 RMK AO2 SLP183 T01171039 51023
KFLP 120156Z AUTO 31009KT 10SM CLR 13/M05 A3005 RMK AO2 PK WND 31026/0113 SLP177 T01281050
KFLP 120056Z AUTO 32012G21KT 10SM CLR 13/M07 A3003 RMK AO2 SLP172 T01331067
KFLP 112356Z AUTO 31012G19KT 10SM CLR 14/M08 A3000 RMK AO2 SLP160 6//// T01441083 10228 20144 53028
KFLP 112256Z AUTO 32012G20KT 10SM CLR 17/M08 A2996 RMK AO2 SLP146 T01721078
KFLP 112156Z AUTO 30010G18KT 10SM CLR 19/M09 A2994 RMK AO2 SLP135 T01941089
KFLP 112056Z AUTO 30011KT 10SM CLR 21/M09 A2991 RMK AO2 SLP129 6//// T02111089 55015
KFLP 111956Z AUTO 30013KT 10SM CLR 22/M10 A2991 RMK AO2 SLP128 T02221100
KFLP 111856Z AUTO 27019G27KT 10SM CLR 22/M11 A2993 RMK AO2 PK WND 25030/1800 SLP133 T02221111 PNO $
KFLP 111713Z AUTO 25012G15KT 8SM CLR 19/M07 A3000 RMK AO2 TSNO PNO $
KFLP 111709Z AUTO 24011KT 3/4SM HZ CLR 19/M06 A3000 RMK AO2 PNO $
KFLP 111702Z AUTO 24010KT 1 1/4SM HZ CLR 19/M06 A3001 RMK AO2 PNO $
KFLP 111656Z AUTO 24009KT 10SM CLR 18/M06 A3001 RMK AO2 SLP159 T01831056 PNO $
KFLP 111556Z AUTO 12003KT 10SM CLR 09/M02 A3006 RMK AO2 SLP179 T00941017 PNO $
KFLP 111456Z AUTO 03004KT 10SM CLR 03/M02 A3009 RMK AO2 SLP190 6//// T00281017 58013 PNO $
KFLP 111356Z AUTO 09003KT 10SM CLR M02/M04 A3011 RMK AO2 SLP199 T10171039 FZRANO PNO $
KFLP 111156Z AUTO 00000KT 10SM CLR M01/M04 A3013 RMK AO2 SLP204 6//// 7//// T10111044 10072 21017 56016 FZRANO PNO $
KFLP 111056Z AUTO 00000KT 10SM CLR M01/M04 A3014 RMK AO2 SLP206 T10111044 FZRANO PNO $
KFLP 110956Z AUTO 00000KT 10SM CLR M01/M04 A3016 RMK AO2 SLP212 T10111044 FZRANO PNO $
KFLP 110856Z AUTO 00000KT 10SM CLR 01/M04 A3017 RMK AO2 SLP216 6//// T00111044 58005 FZRANO PNO $
KFLP 110756Z AUTO 26003KT 10SM CLR 02/M04 A3018 RMK AO2 SLP220 T00171044 FZRANO PNO $
KFLP 110656Z AUTO 00000KT 10SM CLR 03/M04 A3018 RMK AO2 SLP222 T00331044 PNO $
KFLP 110556Z AUTO 00000KT 10SM CLR 07/M05 A3019 RMK AO2 SLP222 6//// T00721050 10122 20061 401781067 58002 PNO $
KFLP 110456Z AUTO 00000KT 10SM CLR 07/M04 A3019 RMK AO2 SLP224 T00721044 PNO $
KFLP 110356Z AUTO 23003KT 10SM CLR 09/M05 A3019 RMK AO2 SLP225 T00891050 PNO $
KFLP 110256Z AUTO 17003KT 10SM CLR 09/M05 A3019 RMK AO2 SLP229 6//// T00941050 51012 PNO $
KFLP 110156Z AUTO 00000KT 10SM CLR 11/M04 A3019 RMK AO2 SLP225 T01061044 PNO $
KFLP 110056Z AUTO 00000KT 10SM CLR 12/M05 A3018 RMK AO2 SLP224 T01221050 TSNO PNO $
KFLP 102356Z AUTO 00000KT 10SM CLR 12/M06 A3016 RMK AO2 SLP217 6//// T01221056 10178 20122 53017 PNO $
KFLP 102256Z AUTO 27007KT 10SM CLR 14/M06 A3013 RMK AO2 SLP207 T01391056 PNO $